createdAt,value
2023-04-11T00:00:04.239Z,10.82
2023-04-11T00:04:25.690Z,10.64
2023-04-11T00:08:38.228Z,10.41
2023-04-11T00:12:50.588Z,10.29
2023-04-11T00:17:03.090Z,10.19
2023-04-11T00:21:15.546Z,10.50
2023-04-11T00:25:30.366Z,10.27
2023-04-11T00:29:42.862Z,10.19
2023-04-11T00:33:55.199Z,10.09
2023-04-11T00:38:07.669Z,9.92
2023-04-11T00:42:20.502Z,9.85
2023-04-11T00:46:36.229Z,9.89
2023-04-11T00:50:48.881Z,9.97
2023-04-11T00:55:03.704Z,9.94
2023-04-11T00:59:16.297Z,9.97
2023-04-11T01:03:29.761Z,9.93
2023-04-11T01:07:45.954Z,9.93
2023-04-11T01:12:01.697Z,9.92
2023-04-11T01:16:15.785Z,9.88
2023-04-11T01:20:29.983Z,9.55
2023-04-11T01:24:42.533Z,9.39
2023-04-11T01:28:55.246Z,9.42
2023-04-11T01:33:07.975Z,9.28
2023-04-11T01:37:20.766Z,9.20
2023-04-11T01:41:35.022Z,9.16
2023-04-11T01:45:47.845Z,9.12
2023-04-11T01:50:00.211Z,8.84
2023-04-11T01:54:14.877Z,8.79
2023-04-11T01:58:27.516Z,8.68
2023-04-11T02:02:40.308Z,8.86
2023-04-11T02:06:54.698Z,8.88
2023-04-11T02:11:08.458Z,9.05
2023-04-11T02:15:20.979Z,8.68
2023-04-11T02:19:34.731Z,8.81
2023-04-11T02:23:47.162Z,8.65
2023-04-11T02:27:59.597Z,8.65
2023-04-11T02:32:12.172Z,8.49
2023-04-11T02:36:24.595Z,8.36
2023-04-11T02:40:36.923Z,8.18
2023-04-11T02:44:49.498Z,8.10
2023-04-11T02:49:05.265Z,8.18
2023-04-11T02:53:18.954Z,7.84
2023-04-11T02:57:34.670Z,7.82
2023-04-11T03:01:47.318Z,7.77
2023-04-11T03:06:00.356Z,7.83
2023-04-11T03:10:13.153Z,7.83
2023-04-11T03:14:25.642Z,7.69
2023-04-11T03:18:38.006Z,7.71
2023-04-11T03:22:54.197Z,7.55
2023-04-11T03:27:06.731Z,7.58
2023-04-11T03:31:20.026Z,7.72
2023-04-11T03:35:33.481Z,7.60
2023-04-11T03:39:46.111Z,7.82
2023-04-11T03:43:58.624Z,7.87
2023-04-11T03:48:11.181Z,7.82
2023-04-11T03:52:35.321Z,7.70
2023-04-11T03:56:50.899Z,7.76
2023-04-11T04:01:07.794Z,7.87
2023-04-11T04:05:21.318Z,7.60
2023-04-11T04:09:34.582Z,7.24
2023-04-11T04:13:49.355Z,7.16
2023-04-11T04:18:04.870Z,7.45
2023-04-11T04:22:27.134Z,7.15
2023-04-11T04:26:41.622Z,7.18
2023-04-11T04:31:06.177Z,7.09
2023-04-11T04:35:25.190Z,7.21
2023-04-11T04:39:39.627Z,7.30
2023-04-11T04:44:00.410Z,7.74
2023-04-11T04:48:27.375Z,7.65
2023-04-11T04:52:39.817Z,7.74
2023-04-11T04:56:52.312Z,7.71
2023-04-11T05:01:05.504Z,7.89
2023-04-11T05:05:19.678Z,7.89
2023-04-11T05:09:33.576Z,7.95
2023-04-11T05:14:00.665Z,8.22
2023-04-11T05:18:13.360Z,8.62
2023-04-11T05:22:26.251Z,9.21
2023-04-11T05:26:40.992Z,9.25
2023-04-11T05:30:54.734Z,9.47
2023-04-11T05:35:10.629Z,9.84
2023-04-11T05:39:35.858Z,10.47
2023-04-11T05:43:48.520Z,10.61
2023-04-11T05:48:01.021Z,10.51
2023-04-11T05:52:13.547Z,10.20
2023-04-11T05:56:26.016Z,9.93
2023-04-11T06:00:38.890Z,10.06
2023-04-11T06:04:51.667Z,10.25
2023-04-11T06:09:05.435Z,10.27
2023-04-11T06:13:17.756Z,10.58
2023-04-11T06:17:30.480Z,10.37
2023-04-11T06:21:44.285Z,10.68
2023-04-11T06:25:56.801Z,11.08
2023-04-11T06:30:09.974Z,11.24
2023-04-11T06:34:22.395Z,10.59
2023-04-11T06:38:37.009Z,10.83
2023-04-11T06:42:50.646Z,11.16
2023-04-11T06:47:03.516Z,10.72
2023-04-11T06:51:16.021Z,11.00
2023-04-11T06:55:28.371Z,11.57
2023-04-11T06:59:40.846Z,11.68
2023-04-11T07:03:53.791Z,11.87
2023-04-11T07:08:06.392Z,12.13
2023-04-11T07:12:18.838Z,12.35
2023-04-11T07:16:31.362Z,12.47
2023-04-11T07:20:43.823Z,12.48
2023-04-11T07:24:57.703Z,12.45
2023-04-11T07:29:11.619Z,12.94
2023-04-11T07:33:25.681Z,12.90
2023-04-11T07:37:38.597Z,13.59
2023-04-11T07:41:51.089Z,13.88
2023-04-11T07:46:03.993Z,14.19
2023-04-11T07:50:19.577Z,14.10
2023-04-11T07:54:32.340Z,14.09
2023-04-11T07:58:44.836Z,14.80
2023-04-11T08:02:59.281Z,14.73
2023-04-11T08:07:11.933Z,14.69
2023-04-11T08:11:24.355Z,14.88
2023-04-11T08:15:39.093Z,15.10
2023-04-11T08:19:51.794Z,15.48
2023-04-11T08:24:07.515Z,15.17
2023-04-11T08:28:21.186Z,16.34
2023-04-11T08:32:33.557Z,16.66
2023-04-11T08:36:47.062Z,16.84
2023-04-11T08:40:59.559Z,16.74
2023-04-11T08:45:12.372Z,16.54
2023-04-11T08:49:24.876Z,16.56
2023-04-11T08:53:39.353Z,16.93
2023-04-11T08:57:53.919Z,17.06
2023-04-11T09:02:11.487Z,17.16
2023-04-11T09:06:24.827Z,17.32
2023-04-11T09:10:38.980Z,17.48
2023-04-11T09:14:53.405Z,17.57
2023-04-11T09:19:24.255Z,16.97
2023-04-11T09:23:37.659Z,17.00
2023-04-11T09:28:09.617Z,17.26
2023-04-11T09:32:36.453Z,17.27
2023-04-11T09:36:56.214Z,17.49
2023-04-11T09:41:08.701Z,18.37
2023-04-11T09:45:24.627Z,17.96
2023-04-11T09:49:37.476Z,17.73
2023-04-11T09:53:50.023Z,17.81
2023-04-11T09:58:05.983Z,18.13
2023-04-11T10:02:18.365Z,18.81
2023-04-11T10:06:48.402Z,18.15
2023-04-11T10:11:02.093Z,17.69
2023-04-11T10:15:15.617Z,17.30
2023-04-11T10:19:28.253Z,17.36
2023-04-11T10:24:21.540Z,18.36
2023-04-11T10:28:36.105Z,18.45
2023-04-11T10:33:11.566Z,18.79
2023-04-11T10:37:37.766Z,18.41
2023-04-11T10:41:50.357Z,17.87
2023-04-11T10:46:23.129Z,17.46
2023-04-11T10:50:38.053Z,18.01
2023-04-11T10:54:54.751Z,17.72
2023-04-11T10:59:07.484Z,17.58
2023-04-11T11:03:25.477Z,17.47
2023-04-11T11:07:40.042Z,17.37
2023-04-11T11:12:15.983Z,17.19
2023-04-11T11:16:30.020Z,16.60
2023-04-11T11:20:42.770Z,17.90
2023-04-11T11:24:55.536Z,19.01
2023-04-11T11:29:08.661Z,20.26
2023-04-11T11:33:23.452Z,19.06
2023-04-11T11:37:36.047Z,18.86
2023-04-11T11:41:49.203Z,18.80
2023-04-11T11:46:15.403Z,18.81
2023-04-11T11:50:32.891Z,20.44
2023-04-11T11:54:48.152Z,18.21
2023-04-11T11:59:00.950Z,17.90
2023-04-11T12:03:18.546Z,17.81
2023-04-11T12:07:37.049Z,18.11
2023-04-11T12:11:49.439Z,18.08
2023-04-11T12:16:02.416Z,18.00
2023-04-11T12:20:17.856Z,17.36
2023-04-11T12:24:30.374Z,17.87
2023-04-11T12:28:42.785Z,18.35
2023-04-11T12:32:55.337Z,17.99
2023-04-11T12:37:07.967Z,18.01
2023-04-11T12:41:32.375Z,17.72
2023-04-11T12:45:45.145Z,18.03
2023-04-11T12:49:57.598Z,18.98
2023-04-11T12:54:10.082Z,18.85
2023-04-11T12:58:23.987Z,18.23
2023-04-11T13:02:42.755Z,17.35
2023-04-11T13:07:02.137Z,18.36
2023-04-11T13:11:14.598Z,17.51
2023-04-11T13:15:27.395Z,17.66
2023-04-11T13:19:39.961Z,18.01
2023-04-11T13:23:52.551Z,17.49
2023-04-11T13:28:04.918Z,17.03
2023-04-11T13:32:17.339Z,17.37
2023-04-11T13:36:30.075Z,17.40
2023-04-11T13:40:43.017Z,17.29
2023-04-11T13:44:55.677Z,17.81
2023-04-11T13:49:08.236Z,16.99
2023-04-11T13:53:20.625Z,17.38
2023-04-11T13:57:33.179Z,17.86
2023-04-11T14:01:45.749Z,17.07
2023-04-11T14:05:58.200Z,17.23
2023-04-11T14:10:11.271Z,17.23
2023-04-11T14:14:23.792Z,17.07
2023-04-11T14:18:36.641Z,17.28
2023-04-11T14:22:49.511Z,17.22
2023-04-11T14:27:02.698Z,17.28
2023-04-11T14:31:15.351Z,17.28
2023-04-11T14:35:27.942Z,17.43
2023-04-11T14:39:40.406Z,17.08
2023-04-11T14:43:52.802Z,17.31
2023-04-11T14:48:05.657Z,17.31
2023-04-11T14:52:18.291Z,17.20
2023-04-11T14:56:30.674Z,16.70
2023-04-11T15:00:43.210Z,17.15
2023-04-11T15:04:57.056Z,16.88
2023-04-11T15:09:10.055Z,16.69
2023-04-11T15:13:24.110Z,16.74
2023-04-11T15:17:42.431Z,16.29
2023-04-11T15:21:54.902Z,16.19
2023-04-11T15:26:08.870Z,15.84
2023-04-11T15:30:21.278Z,15.79
2023-04-11T15:34:33.640Z,15.62
2023-04-11T15:38:46.742Z,15.64
2023-04-11T15:42:59.247Z,15.67
2023-04-11T15:47:14.518Z,15.58
2023-04-11T15:51:27.537Z,15.45
2023-04-11T15:55:42.916Z,15.41
2023-04-11T15:59:56.209Z,15.12
2023-04-11T16:04:09.436Z,14.88
2023-04-11T16:08:22.227Z,14.68
2023-04-11T16:12:35.621Z,14.68
2023-04-11T16:16:48.358Z,14.43
2023-04-11T16:21:00.925Z,14.36
2023-04-11T16:25:16.342Z,14.36
2023-04-11T16:29:29.119Z,14.25
2023-04-11T16:33:41.721Z,14.26
2023-04-11T16:37:54.326Z,14.22
2023-04-11T16:42:06.892Z,14.07
2023-04-11T16:46:19.587Z,13.99
2023-04-11T16:50:32.357Z,13.92
2023-04-11T16:54:44.931Z,13.80
2023-04-11T16:58:57.838Z,13.73
2023-04-11T17:03:11.781Z,13.62
2023-04-11T17:07:24.308Z,13.56
2023-04-11T17:11:39.913Z,13.45
2023-04-11T17:15:52.303Z,13.41
2023-04-11T17:20:09.793Z,13.27
2023-04-11T17:24:22.417Z,13.12
2023-04-11T17:28:35.867Z,13.14
2023-04-11T17:32:49.376Z,12.93
2023-04-11T17:37:02.378Z,12.68
2023-04-11T17:41:15.838Z,12.63
2023-04-11T17:45:28.615Z,12.60
2023-04-11T17:49:41.197Z,12.62
2023-04-11T17:53:53.686Z,12.51
2023-04-11T17:58:06.525Z,12.56
2023-04-11T18:02:19.155Z,12.49
2023-04-11T18:06:34.577Z,12.53
2023-04-11T18:10:47.135Z,12.50
2023-04-11T18:14:59.709Z,12.41
2023-04-11T18:19:12.300Z,12.48
2023-04-11T18:23:24.641Z,12.42
2023-04-11T18:27:38.489Z,12.32
2023-04-11T18:31:50.999Z,12.21
2023-04-11T18:36:03.613Z,12.08
2023-04-11T18:40:18.480Z,12.24
2023-04-11T18:44:31.926Z,12.06
2023-04-11T18:48:47.113Z,11.89
2023-04-11T18:53:05.121Z,11.77
2023-04-11T18:57:18.932Z,11.75
2023-04-11T19:01:32.030Z,11.77
2023-04-11T19:05:45.661Z,11.68
2023-04-11T19:09:58.981Z,11.71
2023-04-11T19:14:11.588Z,11.80
2023-04-11T19:18:24.071Z,11.66
2023-04-11T19:22:40.165Z,11.60
2023-04-11T19:26:53.120Z,11.57
2023-04-11T19:31:05.939Z,11.60
2023-04-11T19:35:21.714Z,11.52
2023-04-11T19:39:38.692Z,11.51
2023-04-11T19:43:51.537Z,11.52
2023-04-11T19:48:04.274Z,11.53
2023-04-11T19:52:16.858Z,11.44
2023-04-11T19:56:29.484Z,11.52
2023-04-11T20:00:42.256Z,11.50
2023-04-11T20:04:56.401Z,11.37
2023-04-11T20:09:09.031Z,10.71
2023-04-11T20:13:21.873Z,10.66
2023-04-11T20:17:34.460Z,10.71
2023-04-11T20:21:46.975Z,11.01
2023-04-11T20:25:59.465Z,11.21
2023-04-11T20:30:13.272Z,10.24
2023-04-11T20:34:25.795Z,10.64
2023-04-11T20:38:38.364Z,10.98
2023-04-11T20:42:54.061Z,10.67
2023-04-11T20:47:07.770Z,10.97
2023-04-11T20:51:20.372Z,10.66
2023-04-11T20:55:33.731Z,10.67
2023-04-11T20:59:46.858Z,10.96
2023-04-11T21:04:02.994Z,10.59
2023-04-11T21:08:15.955Z,10.55
2023-04-11T21:12:28.280Z,10.72
2023-04-11T21:16:40.762Z,10.29
2023-04-11T21:20:53.222Z,9.87
2023-04-11T21:25:06.121Z,10.17
2023-04-11T21:29:18.639Z,9.91
2023-04-11T21:33:31.183Z,9.87
2023-04-11T21:37:43.610Z,10.28
2023-04-11T21:41:56.640Z,10.15
2023-04-11T21:46:09.054Z,10.24
2023-04-11T21:50:21.498Z,10.18
2023-04-11T21:54:34.599Z,10.09
2023-04-11T21:58:47.053Z,10.07
2023-04-11T22:02:59.642Z,9.94
2023-04-11T22:07:15.932Z,10.02
2023-04-11T22:11:28.506Z,9.91
2023-04-11T22:15:41.170Z,9.75
2023-04-11T22:19:53.604Z,10.02
2023-04-11T22:24:09.754Z,9.79
2023-04-11T22:28:22.471Z,9.68
2023-04-11T22:32:35.046Z,9.44
2023-04-11T22:36:47.698Z,9.26
2023-04-11T22:41:00.034Z,9.20
2023-04-11T22:45:12.416Z,9.49
2023-04-11T22:49:25.039Z,9.41
2023-04-11T22:53:42.355Z,9.44
2023-04-11T22:57:54.923Z,9.38
2023-04-11T23:02:07.626Z,9.34
2023-04-11T23:06:20.138Z,9.31
2023-04-11T23:10:32.533Z,9.28
2023-04-11T23:14:46.858Z,9.61
2023-04-11T23:18:59.565Z,9.47
2023-04-11T23:23:11.985Z,9.57
2023-04-11T23:27:24.793Z,9.43
2023-04-11T23:31:37.249Z,9.28
2023-04-11T23:35:49.674Z,9.24
2023-04-11T23:40:11.114Z,9.22
2023-04-11T23:44:24.010Z,9.29
2023-04-11T23:48:37.370Z,9.17
2023-04-11T23:52:49.951Z,9.14
2023-04-11T23:57:02.616Z,8.90
